sensor_id;sensor_type;location;lat;lon;timestamp;temperature;humidity
7720;DHT22;3902;49.474;8.616;2023-12-07T00:01:19;5.40;99.90
7720;DHT22;3902;49.474;8.616;2023-12-07T00:03:44;5.40;99.90
7720;DHT22;3902;49.474;8.616;2023-12-07T00:06:10;5.30;99.90
7720;DHT22;3902;49.474;8.616;2023-12-07T00:08:36;5.30;99.90
7720;DHT22;3902;49.474;8.616;2023-12-07T00:11:01;5.30;99.90
7720;DHT22;3902;49.474;8.616;2023-12-07T00:13:27;5.30;99.90
7720;DHT22;3902;49.474;8.616;2023-12-07T00:15:52;5.20;99.90
7720;DHT22;3902;49.474;8.616;2023-12-07T00:18:18;5.20;99.90
7720;DHT22;3902;49.474;8.616;2023-12-07T00:20:44;5.20;99.90
7720;DHT22;3902;49.474;8.616;2023-12-07T00:23:10;5.20;99.90
7720;DHT22;3902;49.474;8.616;2023-12-07T00:25:37;5.10;99.90
7720;DHT22;3902;49.474;8.616;2023-12-07T00:28:03;5.10;99.90
7720;DHT22;3902;49.474;8.616;2023-12-07T00:30:29;5.10;99.90
7720;DHT22;3902;49.474;8.616;2023-12-07T00:32:54;5.10;99.90
7720;DHT22;3902;49.474;8.616;2023-12-07T00:35:20;5.00;99.90
7720;DHT22;3902;49.474;8.616;2023-12-07T00:37:47;5.00;99.90
7720;DHT22;3902;49.474;8.616;2023-12-07T00:40:13;5.00;99.90
7720;DHT22;3902;49.474;8.616;2023-12-07T00:42:39;5.00;99.90
7720;DHT22;3902;49.474;8.616;2023-12-07T00:45:05;5.00;99.90
7720;DHT22;3902;49.474;8.616;2023-12-07T00:47:30;5.00;99.90
7720;DHT22;3902;49.474;8.616;2023-12-07T00:49:56;5.00;99.90
7720;DHT22;3902;49.474;8.616;2023-12-07T00:52:21;4.90;99.90
7720;DHT22;3902;49.474;8.616;2023-12-07T00:54:47;4.90;99.90
7720;DHT22;3902;49.474;8.616;2023-12-07T00:57:12;4.90;99.90
7720;DHT22;3902;49.474;8.616;2023-12-07T00:59:38;4.90;99.90
7720;DHT22;3902;49.474;8.616;2023-12-07T01:02:04;4.90;99.90
7720;DHT22;3902;49.474;8.616;2023-12-07T01:04:30;4.90;99.90
7720;DHT22;3902;49.474;8.616;2023-12-07T01:06:56;4.90;99.90
7720;DHT22;3902;49.474;8.616;2023-12-07T01:09:22;4.90;99.90
7720;DHT22;3902;49.474;8.616;2023-12-07T01:11:48;4.80;99.90
7720;DHT22;3902;49.474;8.616;2023-12-07T01:14:14;4.80;99.90
7720;DHT22;3902;49.474;8.616;2023-12-07T01:16:39;4.80;99.90
7720;DHT22;3902;49.474;8.616;2023-12-07T01:19:05;4.80;99.90
7720;DHT22;3902;49.474;8.616;2023-12-07T01:21:32;4.70;99.90
7720;DHT22;3902;49.474;8.616;2023-12-07T01:23:58;4.70;99.90
7720;DHT22;3902;49.474;8.616;2023-12-07T01:26:23;4.70;99.90
7720;DHT22;3902;49.474;8.616;2023-12-07T01:28:49;4.60;99.90
7720;DHT22;3902;49.474;8.616;2023-12-07T01:31:14;4.60;99.90
7720;DHT22;3902;49.474;8.616;2023-12-07T01:33:40;4.60;99.90
7720;DHT22;3902;49.474;8.616;2023-12-07T01:36:06;4.60;99.90
7720;DHT22;3902;49.474;8.616;2023-12-07T01:38:31;4.60;99.90
7720;DHT22;3902;49.474;8.616;2023-12-07T01:40:57;4.60;99.90
7720;DHT22;3902;49.474;8.616;2023-12-07T01:43:23;4.50;99.90
7720;DHT22;3902;49.474;8.616;2023-12-07T01:45:49;4.50;99.90
7720;DHT22;3902;49.474;8.616;2023-12-07T01:48:15;4.50;99.90
7720;DHT22;3902;49.474;8.616;2023-12-07T01:50:41;4.60;99.90
7720;DHT22;3902;49.474;8.616;2023-12-07T01:53:07;4.50;99.90
7720;DHT22;3902;49.474;8.616;2023-12-07T01:55:33;4.60;99.90
7720;DHT22;3902;49.474;8.616;2023-12-07T01:57:59;4.60;99.90
7720;DHT22;3902;49.474;8.616;2023-12-07T02:00:26;4.60;99.90
7720;DHT22;3902;49.474;8.616;2023-12-07T02:02:52;4.50;99.90
7720;DHT22;3902;49.474;8.616;2023-12-07T02:05:18;4.50;99.90
7720;DHT22;3902;49.474;8.616;2023-12-07T02:07:43;4.50;99.90
7720;DHT22;3902;49.474;8.616;2023-12-07T02:10:10;4.50;99.90
7720;DHT22;3902;49.474;8.616;2023-12-07T02:12:36;4.50;99.90
7720;DHT22;3902;49.474;8.616;2023-12-07T02:15:02;4.50;99.90
7720;DHT22;3902;49.474;8.616;2023-12-07T02:17:52;4.50;99.90
7720;DHT22;3902;49.474;8.616;2023-12-07T02:23:01;4.40;99.90
7720;DHT22;3902;49.474;8.616;2023-12-07T02:28:08;4.40;99.90
7720;DHT22;3902;49.474;8.616;2023-12-07T02:30:34;4.30;99.90
7720;DHT22;3902;49.474;8.616;2023-12-07T02:33:00;4.30;99.90
7720;DHT22;3902;49.474;8.616;2023-12-07T02:35:27;4.20;99.90
7720;DHT22;3902;49.474;8.616;2023-12-07T02:37:54;4.20;99.90
7720;DHT22;3902;49.474;8.616;2023-12-07T02:40:23;4.20;99.90
7720;DHT22;3902;49.474;8.616;2023-12-07T02:42:49;4.20;99.90
7720;DHT22;3902;49.474;8.616;2023-12-07T02:45:15;4.20;99.90
7720;DHT22;3902;49.474;8.616;2023-12-07T02:47:41;4.10;99.90
7720;DHT22;3902;49.474;8.616;2023-12-07T02:50:09;4.10;99.90
7720;DHT22;3902;49.474;8.616;2023-12-07T02:52:35;4.10;99.90
7720;DHT22;3902;49.474;8.616;2023-12-07T02:55:00;4.10;99.90
7720;DHT22;3902;49.474;8.616;2023-12-07T02:57:26;4.00;99.90
7720;DHT22;3902;49.474;8.616;2023-12-07T02:59:51;4.00;99.90
7720;DHT22;3902;49.474;8.616;2023-12-07T03:02:17;4.00;99.90
7720;DHT22;3902;49.474;8.616;2023-12-07T03:04:42;4.00;99.90
7720;DHT22;3902;49.474;8.616;2023-12-07T03:07:08;4.00;99.90
7720;DHT22;3902;49.474;8.616;2023-12-07T03:09:33;4.00;99.90
7720;DHT22;3902;49.474;8.616;2023-12-07T03:11:59;3.90;99.90
7720;DHT22;3902;49.474;8.616;2023-12-07T03:14:24;3.90;99.90
7720;DHT22;3902;49.474;8.616;2023-12-07T03:16:50;3.90;99.90
7720;DHT22;3902;49.474;8.616;2023-12-07T03:19:15;3.90;99.90
7720;DHT22;3902;49.474;8.616;2023-12-07T03:21:42;3.90;99.90
7720;DHT22;3902;49.474;8.616;2023-12-07T03:24:08;3.90;99.90
7720;DHT22;3902;49.474;8.616;2023-12-07T03:26:34;3.80;99.90
7720;DHT22;3902;49.474;8.616;2023-12-07T03:29:00;3.80;99.90
7720;DHT22;3902;49.474;8.616;2023-12-07T03:31:25;3.80;99.90
7720;DHT22;3902;49.474;8.616;2023-12-07T03:33:51;3.80;99.90
7720;DHT22;3902;49.474;8.616;2023-12-07T03:36:16;3.80;99.90
7720;DHT22;3902;49.474;8.616;2023-12-07T03:38:42;3.80;99.90
7720;DHT22;3902;49.474;8.616;2023-12-07T03:41:08;3.70;99.90
7720;DHT22;3902;49.474;8.616;2023-12-07T03:43:33;3.70;99.90
7720;DHT22;3902;49.474;8.616;2023-12-07T03:45:59;3.70;99.90
7720;DHT22;3902;49.474;8.616;2023-12-07T03:48:24;3.70;99.90
7720;DHT22;3902;49.474;8.616;2023-12-07T03:50:50;3.70;99.90
7720;DHT22;3902;49.474;8.616;2023-12-07T03:53:15;3.70;99.90
7720;DHT22;3902;49.474;8.616;2023-12-07T03:55:41;3.70;99.90
7720;DHT22;3902;49.474;8.616;2023-12-07T03:58:07;3.60;99.90
7720;DHT22;3902;49.474;8.616;2023-12-07T04:00:32;3.60;99.90
7720;DHT22;3902;49.474;8.616;2023-12-07T04:02:58;3.60;99.90
7720;DHT22;3902;49.474;8.616;2023-12-07T04:05:24;3.60;99.90
7720;DHT22;3902;49.474;8.616;2023-12-07T04:07:49;3.60;99.90
7720;DHT22;3902;49.474;8.616;2023-12-07T04:10:15;3.60;99.90
7720;DHT22;3902;49.474;8.616;2023-12-07T04:12:41;3.60;99.90
7720;DHT22;3902;49.474;8.616;2023-12-07T04:15:07;3.60;99.90
7720;DHT22;3902;49.474;8.616;2023-12-07T04:17:32;3.60;99.90
7720;DHT22;3902;49.474;8.616;2023-12-07T04:19:58;3.50;99.90
7720;DHT22;3902;49.474;8.616;2023-12-07T04:22:23;3.50;99.90
7720;DHT22;3902;49.474;8.616;2023-12-07T04:24:49;3.50;99.90
7720;DHT22;3902;49.474;8.616;2023-12-07T04:27:14;3.50;99.90
7720;DHT22;3902;49.474;8.616;2023-12-07T04:29:40;3.50;99.90
7720;DHT22;3902;49.474;8.616;2023-12-07T04:32:07;3.50;99.90
7720;DHT22;3902;49.474;8.616;2023-12-07T04:34:33;3.60;99.90
7720;DHT22;3902;49.474;8.616;2023-12-07T04:36:58;3.50;99.90
7720;DHT22;3902;49.474;8.616;2023-12-07T04:39:24;3.60;99.90
7720;DHT22;3902;49.474;8.616;2023-12-07T04:41:49;3.50;99.90
7720;DHT22;3902;49.474;8.616;2023-12-07T04:44:15;3.50;99.90
7720;DHT22;3902;49.474;8.616;2023-12-07T04:46:41;3.50;99.90
7720;DHT22;3902;49.474;8.616;2023-12-07T04:49:07;3.50;99.90
7720;DHT22;3902;49.474;8.616;2023-12-07T04:51:32;3.50;99.90
7720;DHT22;3902;49.474;8.616;2023-12-07T04:53:58;3.50;99.90
7720;DHT22;3902;49.474;8.616;2023-12-07T04:56:23;3.50;99.90
7720;DHT22;3902;49.474;8.616;2023-12-07T04:58:49;3.40;99.90
7720;DHT22;3902;49.474;8.616;2023-12-07T05:01:15;3.40;99.90
7720;DHT22;3902;49.474;8.616;2023-12-07T05:03:40;3.40;99.90
7720;DHT22;3902;49.474;8.616;2023-12-07T05:06:06;3.50;99.90
7720;DHT22;3902;49.474;8.616;2023-12-07T05:08:33;3.40;99.90
7720;DHT22;3902;49.474;8.616;2023-12-07T05:10:58;3.40;99.90
7720;DHT22;3902;49.474;8.616;2023-12-07T05:13:24;3.40;99.90
7720;DHT22;3902;49.474;8.616;2023-12-07T05:15:49;3.40;99.90
7720;DHT22;3902;49.474;8.616;2023-12-07T05:18:15;3.40;99.90
7720;DHT22;3902;49.474;8.616;2023-12-07T05:20:40;3.30;99.90
7720;DHT22;3902;49.474;8.616;2023-12-07T05:23:06;3.30;99.90
7720;DHT22;3902;49.474;8.616;2023-12-07T05:25:32;3.30;99.90
7720;DHT22;3902;49.474;8.616;2023-12-07T05:27:58;3.30;99.90
7720;DHT22;3902;49.474;8.616;2023-12-07T05:30:23;3.30;99.90
7720;DHT22;3902;49.474;8.616;2023-12-07T05:32:49;3.30;99.90
7720;DHT22;3902;49.474;8.616;2023-12-07T05:35:15;3.30;99.90
7720;DHT22;3902;49.474;8.616;2023-12-07T05:37:41;3.20;99.90
7720;DHT22;3902;49.474;8.616;2023-12-07T05:40:07;3.20;99.90
7720;DHT22;3902;49.474;8.616;2023-12-07T05:42:33;3.20;99.90
7720;DHT22;3902;49.474;8.616;2023-12-07T05:44:59;3.20;99.90
7720;DHT22;3902;49.474;8.616;2023-12-07T05:47:25;3.10;99.90
7720;DHT22;3902;49.474;8.616;2023-12-07T05:49:51;3.10;99.90
7720;DHT22;3902;49.474;8.616;2023-12-07T05:52:17;3.10;99.90
7720;DHT22;3902;49.474;8.616;2023-12-07T05:54:42;3.10;99.90
7720;DHT22;3902;49.474;8.616;2023-12-07T05:57:08;3.10;99.90
7720;DHT22;3902;49.474;8.616;2023-12-07T05:59:38;3.10;99.90
7720;DHT22;3902;49.474;8.616;2023-12-07T06:02:04;3.10;99.90
7720;DHT22;3902;49.474;8.616;2023-12-07T06:04:30;3.10;99.90
7720;DHT22;3902;49.474;8.616;2023-12-07T06:06:56;3.10;99.90
7720;DHT22;3902;49.474;8.616;2023-12-07T06:09:21;3.10;99.90
7720;DHT22;3902;49.474;8.616;2023-12-07T06:11:47;3.10;99.90
7720;DHT22;3902;49.474;8.616;2023-12-07T06:14:13;3.10;99.90
7720;DHT22;3902;49.474;8.616;2023-12-07T06:16:38;3.10;99.90
7720;DHT22;3902;49.474;8.616;2023-12-07T06:19:04;3.10;99.90
7720;DHT22;3902;49.474;8.616;2023-12-07T06:21:29;3.10;99.90
7720;DHT22;3902;49.474;8.616;2023-12-07T06:23:56;3.10;99.90
7720;DHT22;3902;49.474;8.616;2023-12-07T06:26:22;3.10;99.90
7720;DHT22;3902;49.474;8.616;2023-12-07T06:28:47;3.10;99.90
7720;DHT22;3902;49.474;8.616;2023-12-07T06:31:13;3.10;99.90
7720;DHT22;3902;49.474;8.616;2023-12-07T06:33:41;3.10;99.90
7720;DHT22;3902;49.474;8.616;2023-12-07T06:36:07;3.10;99.90
7720;DHT22;3902;49.474;8.616;2023-12-07T06:38:32;3.10;99.90
7720;DHT22;3902;49.474;8.616;2023-12-07T06:40:58;3.10;99.90
7720;DHT22;3902;49.474;8.616;2023-12-07T06:43:24;3.00;99.90
7720;DHT22;3902;49.474;8.616;2023-12-07T06:45:49;3.00;99.90
7720;DHT22;3902;49.474;8.616;2023-12-07T06:48:15;3.00;99.90
7720;DHT22;3902;49.474;8.616;2023-12-07T06:50:40;3.00;99.90
7720;DHT22;3902;49.474;8.616;2023-12-07T06:53:07;3.00;99.90
7720;DHT22;3902;49.474;8.616;2023-12-07T06:55:32;2.90;99.90
7720;DHT22;3902;49.474;8.616;2023-12-07T06:57:58;2.90;99.90
7720;DHT22;3902;49.474;8.616;2023-12-07T07:00:23;2.90;99.90
7720;DHT22;3902;49.474;8.616;2023-12-07T07:02:50;2.90;99.90
7720;DHT22;3902;49.474;8.616;2023-12-07T07:05:15;2.90;99.90
7720;DHT22;3902;49.474;8.616;2023-12-07T07:07:41;2.80;99.90
7720;DHT22;3902;49.474;8.616;2023-12-07T07:10:07;2.80;99.90
7720;DHT22;3902;49.474;8.616;2023-12-07T07:12:35;2.80;99.90
7720;DHT22;3902;49.474;8.616;2023-12-07T07:15:01;2.80;99.90
7720;DHT22;3902;49.474;8.616;2023-12-07T07:17:26;2.80;99.90
7720;DHT22;3902;49.474;8.616;2023-12-07T07:19:54;2.80;99.90
7720;DHT22;3902;49.474;8.616;2023-12-07T07:22:20;2.80;99.90
7720;DHT22;3902;49.474;8.616;2023-12-07T07:24:46;2.80;99.90
7720;DHT22;3902;49.474;8.616;2023-12-07T07:27:12;2.80;99.90
7720;DHT22;3902;49.474;8.616;2023-12-07T07:29:38;2.80;99.90
7720;DHT22;3902;49.474;8.616;2023-12-07T07:32:04;2.80;99.90
7720;DHT22;3902;49.474;8.616;2023-12-07T07:34:29;2.80;99.90
7720;DHT22;3902;49.474;8.616;2023-12-07T07:36:55;2.80;99.90
7720;DHT22;3902;49.474;8.616;2023-12-07T07:39:20;2.80;99.90
7720;DHT22;3902;49.474;8.616;2023-12-07T07:41:46;2.80;99.90
7720;DHT22;3902;49.474;8.616;2023-12-07T07:44:11;2.80;99.90
7720;DHT22;3902;49.474;8.616;2023-12-07T07:46:37;2.80;99.90
7720;DHT22;3902;49.474;8.616;2023-12-07T07:49:02;2.80;99.90
7720;DHT22;3902;49.474;8.616;2023-12-07T07:51:31;2.80;99.90
7720;DHT22;3902;49.474;8.616;2023-12-07T07:53:58;2.80;99.90
7720;DHT22;3902;49.474;8.616;2023-12-07T07:56:24;2.90;99.90
7720;DHT22;3902;49.474;8.616;2023-12-07T07:58:49;2.90;99.90
7720;DHT22;3902;49.474;8.616;2023-12-07T08:01:15;2.90;99.90
7720;DHT22;3902;49.474;8.616;2023-12-07T08:03:40;3.00;99.90
7720;DHT22;3902;49.474;8.616;2023-12-07T08:06:06;3.00;99.90
7720;DHT22;3902;49.474;8.616;2023-12-07T08:08:32;3.10;99.90
7720;DHT22;3902;49.474;8.616;2023-12-07T08:10:58;3.10;99.90
7720;DHT22;3902;49.474;8.616;2023-12-07T08:13:23;3.20;99.90
7720;DHT22;3902;49.474;8.616;2023-12-07T08:15:49;3.20;99.90
7720;DHT22;3902;49.474;8.616;2023-12-07T08:18:14;3.30;99.90
7720;DHT22;3902;49.474;8.616;2023-12-07T08:20:40;3.30;99.90
7720;DHT22;3902;49.474;8.616;2023-12-07T08:23:05;3.30;99.90
7720;DHT22;3902;49.474;8.616;2023-12-07T08:25:31;3.30;99.90
7720;DHT22;3902;49.474;8.616;2023-12-07T08:27:57;3.40;99.90
7720;DHT22;3902;49.474;8.616;2023-12-07T08:30:23;3.40;99.90
7720;DHT22;3902;49.474;8.616;2023-12-07T08:32:48;3.40;99.90
7720;DHT22;3902;49.474;8.616;2023-12-07T08:35:14;3.50;99.90
7720;DHT22;3902;49.474;8.616;2023-12-07T08:37:39;3.50;99.90
7720;DHT22;3902;49.474;8.616;2023-12-07T08:40:05;3.60;99.90
7720;DHT22;3902;49.474;8.616;2023-12-07T08:42:31;3.60;99.90
7720;DHT22;3902;49.474;8.616;2023-12-07T08:44:57;3.60;99.90
7720;DHT22;3902;49.474;8.616;2023-12-07T08:47:23;3.70;99.90
7720;DHT22;3902;49.474;8.616;2023-12-07T08:49:48;3.70;99.90
7720;DHT22;3902;49.474;8.616;2023-12-07T08:52:16;3.70;99.90
7720;DHT22;3902;49.474;8.616;2023-12-07T08:54:43;3.60;99.90
7720;DHT22;3902;49.474;8.616;2023-12-07T08:57:08;3.70;99.90
7720;DHT22;3902;49.474;8.616;2023-12-07T08:59:34;3.60;99.90
7720;DHT22;3902;49.474;8.616;2023-12-07T09:01:59;3.60;99.90
7720;DHT22;3902;49.474;8.616;2023-12-07T09:04:25;3.60;99.90
7720;DHT22;3902;49.474;8.616;2023-12-07T09:06:51;3.60;99.90
7720;DHT22;3902;49.474;8.616;2023-12-07T09:09:16;3.60;99.90
7720;DHT22;3902;49.474;8.616;2023-12-07T09:11:42;3.50;99.90
7720;DHT22;3902;49.474;8.616;2023-12-07T09:14:07;3.50;99.90
7720;DHT22;3902;49.474;8.616;2023-12-07T09:16:33;3.50;99.90
7720;DHT22;3902;49.474;8.616;2023-12-07T09:19:00;3.60;99.90
7720;DHT22;3902;49.474;8.616;2023-12-07T09:21:25;3.70;99.90
7720;DHT22;3902;49.474;8.616;2023-12-07T09:23:51;3.60;99.90
7720;DHT22;3902;49.474;8.616;2023-12-07T09:26:17;3.70;99.90
7720;DHT22;3902;49.474;8.616;2023-12-07T09:28:43;3.70;99.90
7720;DHT22;3902;49.474;8.616;2023-12-07T09:31:08;3.70;99.90
7720;DHT22;3902;49.474;8.616;2023-12-07T09:33:34;3.60;99.90
7720;DHT22;3902;49.474;8.616;2023-12-07T09:35:59;3.70;99.90
7720;DHT22;3902;49.474;8.616;2023-12-07T09:38:25;3.70;99.90
7720;DHT22;3902;49.474;8.616;2023-12-07T09:40:54;3.80;99.90
7720;DHT22;3902;49.474;8.616;2023-12-07T09:43:20;3.80;99.90
7720;DHT22;3902;49.474;8.616;2023-12-07T09:45:47;3.80;99.90
7720;DHT22;3902;49.474;8.616;2023-12-07T09:48:13;3.90;99.90
7720;DHT22;3902;49.474;8.616;2023-12-07T09:50:38;3.90;99.90
7720;DHT22;3902;49.474;8.616;2023-12-07T09:53:04;4.00;99.90
7720;DHT22;3902;49.474;8.616;2023-12-07T09:55:29;4.10;99.90
7720;DHT22;3902;49.474;8.616;2023-12-07T09:57:56;4.10;99.90
7720;DHT22;3902;49.474;8.616;2023-12-07T10:00:23;4.10;99.90
7720;DHT22;3902;49.474;8.616;2023-12-07T10:02:49;4.20;99.90
7720;DHT22;3902;49.474;8.616;2023-12-07T10:05:15;4.20;99.90
7720;DHT22;3902;49.474;8.616;2023-12-07T10:07:48;4.30;99.90
7720;DHT22;3902;49.474;8.616;2023-12-07T10:10:14;4.40;99.90
7720;DHT22;3902;49.474;8.616;2023-12-07T10:15:13;4.50;99.90
7720;DHT22;3902;49.474;8.616;2023-12-07T10:17:53;4.60;99.90
7720;DHT22;3902;49.474;8.616;2023-12-07T10:20:20;4.70;99.90
7720;DHT22;3902;49.474;8.616;2023-12-07T10:23:05;4.70;99.90
7720;DHT22;3902;49.474;8.616;2023-12-07T10:25:32;4.80;99.90
7720;DHT22;3902;49.474;8.616;2023-12-07T10:27:57;4.80;99.90
7720;DHT22;3902;49.474;8.616;2023-12-07T10:30:23;4.80;99.90
7720;DHT22;3902;49.474;8.616;2023-12-07T10:32:52;4.90;99.90
7720;DHT22;3902;49.474;8.616;2023-12-07T10:35:18;4.90;99.90
7720;DHT22;3902;49.474;8.616;2023-12-07T10:37:44;5.00;99.90
7720;DHT22;3902;49.474;8.616;2023-12-07T10:40:10;5.00;99.90
7720;DHT22;3902;49.474;8.616;2023-12-07T10:42:36;5.10;99.90
7720;DHT22;3902;49.474;8.616;2023-12-07T10:45:06;5.10;99.90
7720;DHT22;3902;49.474;8.616;2023-12-07T10:47:35;5.20;99.90
7720;DHT22;3902;49.474;8.616;2023-12-07T10:50:05;5.20;99.90
7720;DHT22;3902;49.474;8.616;2023-12-07T10:52:32;5.20;99.90
7720;DHT22;3902;49.474;8.616;2023-12-07T10:55:05;5.30;99.90
7720;DHT22;3902;49.474;8.616;2023-12-07T10:57:33;5.40;99.90
7720;DHT22;3902;49.474;8.616;2023-12-07T11:00:00;5.40;99.90
7720;DHT22;3902;49.474;8.616;2023-12-07T11:02:27;5.50;99.90
7720;DHT22;3902;49.474;8.616;2023-12-07T11:04:56;5.60;99.90
7720;DHT22;3902;49.474;8.616;2023-12-07T11:07:24;5.80;99.90
7720;DHT22;3902;49.474;8.616;2023-12-07T11:10:00;6.30;99.90
7720;DHT22;3902;49.474;8.616;2023-12-07T11:12:35;6.90;99.90
7720;DHT22;3902;49.474;8.616;2023-12-07T11:15:04;7.60;99.90
7720;DHT22;3902;49.474;8.616;2023-12-07T11:18:05;8.50;99.90
7720;DHT22;3902;49.474;8.616;2023-12-07T11:20:45;9.70;99.90
7720;DHT22;3902;49.474;8.616;2023-12-07T11:23:17;10.90;99.90
7720;DHT22;3902;49.474;8.616;2023-12-07T11:25:47;11.80;99.90
7720;DHT22;3902;49.474;8.616;2023-12-07T11:28:13;12.60;99.90
7720;DHT22;3902;49.474;8.616;2023-12-07T11:30:42;13.20;99.90
7720;DHT22;3902;49.474;8.616;2023-12-07T11:33:09;13.80;99.90
7720;DHT22;3902;49.474;8.616;2023-12-07T11:38:26;14.50;99.90
7720;DHT22;3902;49.474;8.616;2023-12-07T11:40:52;14.90;99.90
7720;DHT22;3902;49.474;8.616;2023-12-07T11:46:03;15.40;99.90
7720;DHT22;3902;49.474;8.616;2023-12-07T11:48:29;15.80;99.90
7720;DHT22;3902;49.474;8.616;2023-12-07T11:50:59;16.00;99.90
7720;DHT22;3902;49.474;8.616;2023-12-07T11:53:29;16.20;99.90
7720;DHT22;3902;49.474;8.616;2023-12-07T11:55:56;16.30;99.90
7720;DHT22;3902;49.474;8.616;2023-12-07T11:58:24;16.40;99.90
7720;DHT22;3902;49.474;8.616;2023-12-07T12:00:51;16.50;99.90
7720;DHT22;3902;49.474;8.616;2023-12-07T12:03:17;16.50;99.90
7720;DHT22;3902;49.474;8.616;2023-12-07T12:05:42;16.60;99.90
7720;DHT22;3902;49.474;8.616;2023-12-07T12:08:09;16.50;99.90
7720;DHT22;3902;49.474;8.616;2023-12-07T12:10:35;16.50;99.90
7720;DHT22;3902;49.474;8.616;2023-12-07T12:13:02;16.70;99.90
7720;DHT22;3902;49.474;8.616;2023-12-07T12:15:28;16.80;99.90
7720;DHT22;3902;49.474;8.616;2023-12-07T12:17:56;16.50;99.90
7720;DHT22;3902;49.474;8.616;2023-12-07T12:20:22;16.80;99.90
7720;DHT22;3902;49.474;8.616;2023-12-07T12:22:47;16.80;99.90
7720;DHT22;3902;49.474;8.616;2023-12-07T12:25:13;16.70;99.90
7720;DHT22;3902;49.474;8.616;2023-12-07T12:27:40;16.80;99.90
7720;DHT22;3902;49.474;8.616;2023-12-07T12:30:06;16.50;99.90
7720;DHT22;3902;49.474;8.616;2023-12-07T12:32:45;16.30;99.90
7720;DHT22;3902;49.474;8.616;2023-12-07T12:35:11;16.10;99.90
7720;DHT22;3902;49.474;8.616;2023-12-07T12:37:38;16.00;99.90
7720;DHT22;3902;49.474;8.616;2023-12-07T12:40:08;16.00;99.90
7720;DHT22;3902;49.474;8.616;2023-12-07T12:42:34;15.20;99.90
7720;DHT22;3902;49.474;8.616;2023-12-07T12:45:07;14.70;99.90
7720;DHT22;3902;49.474;8.616;2023-12-07T12:47:34;14.70;99.90
7720;DHT22;3902;49.474;8.616;2023-12-07T12:50:01;14.70;99.90
7720;DHT22;3902;49.474;8.616;2023-12-07T12:52:29;14.40;99.90
7720;DHT22;3902;49.474;8.616;2023-12-07T12:54:56;14.10;99.90
7720;DHT22;3902;49.474;8.616;2023-12-07T12:57:23;14.10;99.90
7720;DHT22;3902;49.474;8.616;2023-12-07T12:59:50;14.10;99.90
7720;DHT22;3902;49.474;8.616;2023-12-07T13:02:15;13.90;99.90
7720;DHT22;3902;49.474;8.616;2023-12-07T13:04:41;14.10;99.90
7720;DHT22;3902;49.474;8.616;2023-12-07T13:07:06;14.00;99.90
7720;DHT22;3902;49.474;8.616;2023-12-07T13:09:32;13.80;99.90
7720;DHT22;3902;49.474;8.616;2023-12-07T13:11:58;13.70;99.90
7720;DHT22;3902;49.474;8.616;2023-12-07T13:14:24;13.60;99.90
7720;DHT22;3902;49.474;8.616;2023-12-07T13:16:49;13.30;99.90
7720;DHT22;3902;49.474;8.616;2023-12-07T13:19:15;13.00;99.90
7720;DHT22;3902;49.474;8.616;2023-12-07T13:21:40;12.90;99.90
7720;DHT22;3902;49.474;8.616;2023-12-07T13:24:06;12.60;99.90
7720;DHT22;3902;49.474;8.616;2023-12-07T13:26:33;12.30;99.90
7720;DHT22;3902;49.474;8.616;2023-12-07T13:28:59;12.10;99.90
7720;DHT22;3902;49.474;8.616;2023-12-07T13:31:25;11.70;99.90
7720;DHT22;3902;49.474;8.616;2023-12-07T13:33:50;11.50;99.90
7720;DHT22;3902;49.474;8.616;2023-12-07T13:36:16;11.30;99.90
7720;DHT22;3902;49.474;8.616;2023-12-07T13:38:46;11.10;99.90
7720;DHT22;3902;49.474;8.616;2023-12-07T13:41:12;10.90;99.90
7720;DHT22;3902;49.474;8.616;2023-12-07T13:43:38;10.60;99.90
7720;DHT22;3902;49.474;8.616;2023-12-07T13:46:04;10.40;99.90
7720;DHT22;3902;49.474;8.616;2023-12-07T13:48:29;10.40;99.90
7720;DHT22;3902;49.474;8.616;2023-12-07T13:50:55;10.30;99.90
7720;DHT22;3902;49.474;8.616;2023-12-07T13:53:20;10.30;99.90
7720;DHT22;3902;49.474;8.616;2023-12-07T13:55:47;10.20;99.90
7720;DHT22;3902;49.474;8.616;2023-12-07T13:58:12;10.10;99.90
7720;DHT22;3902;49.474;8.616;2023-12-07T14:00:38;10.00;99.90
7720;DHT22;3902;49.474;8.616;2023-12-07T14:03:03;10.00;99.90
7720;DHT22;3902;49.474;8.616;2023-12-07T14:05:29;9.80;99.90
7720;DHT22;3902;49.474;8.616;2023-12-07T14:07:56;9.80;99.90
7720;DHT22;3902;49.474;8.616;2023-12-07T14:10:22;9.70;99.90
7720;DHT22;3902;49.474;8.616;2023-12-07T14:12:47;9.60;99.90
7720;DHT22;3902;49.474;8.616;2023-12-07T14:15:13;9.50;99.90
7720;DHT22;3902;49.474;8.616;2023-12-07T14:17:39;9.30;99.90
7720;DHT22;3902;49.474;8.616;2023-12-07T14:20:08;9.20;99.90
7720;DHT22;3902;49.474;8.616;2023-12-07T14:22:34;9.10;99.90
7720;DHT22;3902;49.474;8.616;2023-12-07T14:25:01;9.10;99.90
7720;DHT22;3902;49.474;8.616;2023-12-07T14:27:27;8.90;99.90
7720;DHT22;3902;49.474;8.616;2023-12-07T14:29:52;8.80;99.90
7720;DHT22;3902;49.474;8.616;2023-12-07T14:32:18;8.70;99.90
7720;DHT22;3902;49.474;8.616;2023-12-07T14:34:44;8.50;99.90
7720;DHT22;3902;49.474;8.616;2023-12-07T14:37:09;8.40;99.90
7720;DHT22;3902;49.474;8.616;2023-12-07T14:39:35;8.30;99.90
7720;DHT22;3902;49.474;8.616;2023-12-07T14:42:01;8.10;99.90
7720;DHT22;3902;49.474;8.616;2023-12-07T14:44:28;8.00;99.90
7720;DHT22;3902;49.474;8.616;2023-12-07T14:46:54;7.90;99.90
7720;DHT22;3902;49.474;8.616;2023-12-07T14:49:19;7.80;99.90
7720;DHT22;3902;49.474;8.616;2023-12-07T14:51:47;7.70;99.90
7720;DHT22;3902;49.474;8.616;2023-12-07T14:54:12;7.60;99.90
7720;DHT22;3902;49.474;8.616;2023-12-07T14:56:38;7.50;99.90
7720;DHT22;3902;49.474;8.616;2023-12-07T14:59:05;7.50;99.90
7720;DHT22;3902;49.474;8.616;2023-12-07T15:01:31;7.40;99.90
7720;DHT22;3902;49.474;8.616;2023-12-07T15:03:57;7.20;99.90
7720;DHT22;3902;49.474;8.616;2023-12-07T15:06:23;7.20;99.90
7720;DHT22;3902;49.474;8.616;2023-12-07T15:08:49;7.20;99.90
7720;DHT22;3902;49.474;8.616;2023-12-07T15:11:15;7.10;99.90
7720;DHT22;3902;49.474;8.616;2023-12-07T15:13:40;7.00;99.90
7720;DHT22;3902;49.474;8.616;2023-12-07T15:16:07;6.90;99.90
7720;DHT22;3902;49.474;8.616;2023-12-07T15:18:33;6.90;99.90
7720;DHT22;3902;49.474;8.616;2023-12-07T15:21:01;6.80;99.90
7720;DHT22;3902;49.474;8.616;2023-12-07T15:23:27;6.80;99.90
7720;DHT22;3902;49.474;8.616;2023-12-07T15:25:52;6.70;99.90
7720;DHT22;3902;49.474;8.616;2023-12-07T15:28:20;6.60;99.90
7720;DHT22;3902;49.474;8.616;2023-12-07T15:30:45;6.60;99.90
7720;DHT22;3902;49.474;8.616;2023-12-07T15:33:11;6.50;99.90
7720;DHT22;3902;49.474;8.616;2023-12-07T15:35:38;6.40;99.90
7720;DHT22;3902;49.474;8.616;2023-12-07T15:38:05;6.40;99.90
7720;DHT22;3902;49.474;8.616;2023-12-07T15:40:30;6.30;99.90
7720;DHT22;3902;49.474;8.616;2023-12-07T15:42:56;6.20;99.90
7720;DHT22;3902;49.474;8.616;2023-12-07T15:45:21;6.20;99.90
7720;DHT22;3902;49.474;8.616;2023-12-07T15:47:47;6.10;99.90
7720;DHT22;3902;49.474;8.616;2023-12-07T15:50:13;6.10;99.90
7720;DHT22;3902;49.474;8.616;2023-12-07T15:52:38;6.10;99.90
7720;DHT22;3902;49.474;8.616;2023-12-07T15:55:04;6.10;99.90
7720;DHT22;3902;49.474;8.616;2023-12-07T15:57:31;6.10;99.90
7720;DHT22;3902;49.474;8.616;2023-12-07T15:59:57;6.00;99.90
7720;DHT22;3902;49.474;8.616;2023-12-07T16:02:22;6.00;99.90
7720;DHT22;3902;49.474;8.616;2023-12-07T16:04:48;6.00;99.90
7720;DHT22;3902;49.474;8.616;2023-12-07T16:07:13;5.90;99.90
7720;DHT22;3902;49.474;8.616;2023-12-07T16:09:40;5.80;99.90
7720;DHT22;3902;49.474;8.616;2023-12-07T16:12:09;5.80;99.90
7720;DHT22;3902;49.474;8.616;2023-12-07T16:14:36;5.80;99.90
7720;DHT22;3902;49.474;8.616;2023-12-07T16:17:03;5.80;99.90
7720;DHT22;3902;49.474;8.616;2023-12-07T16:19:28;5.70;99.90
7720;DHT22;3902;49.474;8.616;2023-12-07T16:21:54;5.70;99.90